sensor_id;sensor_type;location;lat;lon;timestamp;pressure;altitude;pressure_sealevel;temperature;humidity
25658;BME280;13517;59.320;18.042;2023-07-31T00:01:52;99822.94;;;14.37;100.00
25658;BME280;13517;59.320;18.042;2023-07-31T00:04:18;99839.34;;;14.45;100.00
25658;BME280;13517;59.320;18.042;2023-07-31T00:06:43;99759.84;;;13.95;100.00
25658;BME280;13517;59.320;18.042;2023-07-31T00:09:08;99843.09;;;14.44;100.00
25658;BME280;13517;59.320;18.042;2023-07-31T00:11:34;99818.41;;;14.27;100.00
25658;BME280;13517;59.320;18.042;2023-07-31T00:13:59;99838.09;;;14.39;100.00
25658;BME280;13517;59.320;18.042;2023-07-31T00:16:25;99802.56;;;14.13;100.00
25658;BME280;13517;59.320;18.042;2023-07-31T00:18:50;99771.88;;;13.93;100.00
25658;BME280;13517;59.320;18.042;2023-07-31T00:21:16;99820.41;;;14.25;100.00
25658;BME280;13517;59.320;18.042;2023-07-31T00:23:41;99801.13;;;14.09;100.00
25658;BME280;13517;59.320;18.042;2023-07-31T00:26:08;99790.13;;;14.00;100.00
25658;BME280;13517;59.320;18.042;2023-07-31T00:28:33;99837.56;;;14.26;100.00
25658;BME280;13517;59.320;18.042;2023-07-31T00:30:59;99818.72;;;14.14;100.00
25658;BME280;13517;59.320;18.042;2023-07-31T00:33:24;99817.03;;;14.03;100.00
25658;BME280;13517;59.320;18.042;2023-07-31T00:35:49;99841.97;;;14.27;100.00
25658;BME280;13517;59.320;18.042;2023-07-31T00:38:15;99813.56;;;14.11;100.00
25658;BME280;13517;59.320;18.042;2023-07-31T00:40:40;99834.56;;;14.19;100.00
25658;BME280;13517;59.320;18.042;2023-07-31T00:43:06;99815.84;;;14.16;100.00
25658;BME280;13517;59.320;18.042;2023-07-31T00:45:32;99837.41;;;14.27;100.00
25658;BME280;13517;59.320;18.042;2023-07-31T00:47:57;99750.44;;;13.80;100.00
25658;BME280;13517;59.320;18.042;2023-07-31T00:50:24;99836.53;;;14.37;100.00
25658;BME280;13517;59.320;18.042;2023-07-31T00:52:50;99805.84;;;14.16;100.00
25658;BME280;13517;59.320;18.042;2023-07-31T00:55:16;99814.56;;;14.20;100.00
25658;BME280;13517;59.320;18.042;2023-07-31T00:57:42;99818.41;;;14.27;100.00
25658;BME280;13517;59.320;18.042;2023-07-31T01:00:08;99843.66;;;14.48;100.00
25658;BME280;13517;59.320;18.042;2023-07-31T01:02:34;99844.38;;;14.50;100.00
25658;BME280;13517;59.320;18.042;2023-07-31T01:05:01;99799.97;;;14.21;100.00
25658;BME280;13517;59.320;18.042;2023-07-31T01:07:45;99843.09;;;14.44;100.00
25658;BME280;13517;59.320;18.042;2023-07-31T01:10:21;99846.09;;;14.51;100.00
25658;BME280;13517;59.320;18.042;2023-07-31T01:12:50;99788.66;;;14.16;100.00
25658;BME280;13517;59.320;18.042;2023-07-31T01:15:17;99843.50;;;14.49;100.00
25658;BME280;13517;59.320;18.042;2023-07-31T01:17:42;99791.25;;;14.18;100.00
25658;BME280;13517;59.320;18.042;2023-07-31T01:20:26;99784.81;;;14.09;100.00
25658;BME280;13517;59.320;18.042;2023-07-31T01:31:12;99825.53;;;14.28;100.00
25658;BME280;13517;59.320;18.042;2023-07-31T01:33:40;99807.41;;;14.19;100.00
25658;BME280;13517;59.320;18.042;2023-07-31T01:36:06;99813.66;;;14.29;100.00
25658;BME280;13517;59.320;18.042;2023-07-31T01:38:32;99828.09;;;14.40;100.00
25658;BME280;13517;59.320;18.042;2023-07-31T01:40:57;99832.22;;;14.44;100.00
25658;BME280;13517;59.320;18.042;2023-07-31T01:43:23;99730.16;;;13.84;100.00
25658;BME280;13517;59.320;18.042;2023-07-31T01:45:49;99795.41;;;14.22;100.00
25658;BME280;13517;59.320;18.042;2023-07-31T01:48:14;99815.81;;;14.36;100.00
25658;BME280;13517;59.320;18.042;2023-07-31T01:50:40;99785.81;;;14.27;100.00
25658;BME280;13517;59.320;18.042;2023-07-31T01:53:05;99791.66;;;14.33;100.00
25658;BME280;13517;59.320;18.042;2023-07-31T01:55:31;99766.09;;;14.25;100.00
25658;BME280;13517;59.320;18.042;2023-07-31T01:57:56;99793.94;;;14.37;100.00
25658;BME280;13517;59.320;18.042;2023-07-31T02:00:22;99796.09;;;14.34;100.00
25658;BME280;13517;59.320;18.042;2023-07-31T02:02:47;99796.34;;;14.40;100.00
25658;BME280;13517;59.320;18.042;2023-07-31T02:05:13;99774.94;;;14.27;100.00
25658;BME280;13517;59.320;18.042;2023-07-31T02:07:38;99781.50;;;14.35;100.00
25658;BME280;13517;59.320;18.042;2023-07-31T02:10:04;99788.47;;;14.47;100.00
25658;BME280;13517;59.320;18.042;2023-07-31T02:12:29;99755.47;;;14.32;100.00
25658;BME280;13517;59.320;18.042;2023-07-31T02:14:58;99820.00;;;14.68;100.00
25658;BME280;13517;59.320;18.042;2023-07-31T02:17:25;99764.03;;;14.37;100.00
25658;BME280;13517;59.320;18.042;2023-07-31T02:19:51;99808.41;;;14.66;100.00
25658;BME280;13517;59.320;18.042;2023-07-31T02:22:16;99783.28;;;14.54;100.00
25658;BME280;13517;59.320;18.042;2023-07-31T02:24:42;99773.88;;;14.48;100.00
25658;BME280;13517;59.320;18.042;2023-07-31T02:27:07;99807.72;;;14.74;100.00
25658;BME280;13517;59.320;18.042;2023-07-31T02:29:32;99780.84;;;14.61;100.00
25658;BME280;13517;59.320;18.042;2023-07-31T02:31:58;99715.75;;;14.21;100.00
25658;BME280;13517;59.320;18.042;2023-07-31T02:34:23;99786.66;;;14.66;100.00
25658;BME280;13517;59.320;18.042;2023-07-31T02:36:48;99808.81;;;14.81;100.00
25658;BME280;13517;59.320;18.042;2023-07-31T02:39:14;99784.13;;;14.64;100.00
25658;BME280;13517;59.320;18.042;2023-07-31T02:41:39;99785.38;;;14.70;100.00
25658;BME280;13517;59.320;18.042;2023-07-31T02:44:05;99809.22;;;14.86;100.00
25658;BME280;13517;59.320;18.042;2023-07-31T02:46:31;99797.69;;;14.74;100.00
25658;BME280;13517;59.320;18.042;2023-07-31T02:48:57;99816.38;;;14.87;100.00
25658;BME280;13517;59.320;18.042;2023-07-31T02:51:22;99812.66;;;14.88;100.00
25658;BME280;13517;59.320;18.042;2023-07-31T02:53:48;99808.38;;;14.86;100.00
25658;BME280;13517;59.320;18.042;2023-07-31T02:56:13;99718.88;;;14.36;100.00
25658;BME280;13517;59.320;18.042;2023-07-31T02:58:39;99687.44;;;14.24;100.00
25658;BME280;13517;59.320;18.042;2023-07-31T03:01:04;99760.91;;;14.70;100.00
25658;BME280;13517;59.320;18.042;2023-07-31T03:03:30;99755.59;;;14.78;100.00
25658;BME280;13517;59.320;18.042;2023-07-31T03:05:56;99768.91;;;14.81;100.00
25658;BME280;13517;59.320;18.042;2023-07-31T03:08:21;99791.31;;;14.93;100.00
25658;BME280;13517;59.320;18.042;2023-07-31T03:10:46;99790.16;;;14.96;100.00
25658;BME280;13517;59.320;18.042;2023-07-31T03:13:12;99746.16;;;14.73;100.00
25658;BME280;13517;59.320;18.042;2023-07-31T03:15:37;99791.53;;;15.00;100.00
25658;BME280;13517;59.320;18.042;2023-07-31T03:18:03;99736.44;;;14.70;100.00
25658;BME280;13517;59.320;18.042;2023-07-31T03:20:28;99749.47;;;14.76;100.00
25658;BME280;13517;59.320;18.042;2023-07-31T03:22:53;99787.56;;;14.94;100.00
25658;BME280;13517;59.320;18.042;2023-07-31T03:25:19;99794.97;;;15.02;100.00
25658;BME280;13517;59.320;18.042;2023-07-31T03:27:44;99781.13;;;14.95;100.00
25658;BME280;13517;59.320;18.042;2023-07-31T03:30:10;99771.25;;;14.94;100.00
25658;BME280;13517;59.320;18.042;2023-07-31T03:32:35;99731.69;;;14.72;100.00
25658;BME280;13517;59.320;18.042;2023-07-31T03:35:01;99742.81;;;14.89;100.00
25658;BME280;13517;59.320;18.042;2023-07-31T03:37:26;99781.31;;;15.12;100.00
25658;BME280;13517;59.320;18.042;2023-07-31T03:39:51;99762.31;;;15.02;100.00
25658;BME280;13517;59.320;18.042;2023-07-31T03:42:17;99792.13;;;15.22;100.00
25658;BME280;13517;59.320;18.042;2023-07-31T03:44:42;99715.09;;;14.85;100.00
25658;BME280;13517;59.320;18.042;2023-07-31T03:47:08;99764.56;;;15.17;100.00
25658;BME280;13517;59.320;18.042;2023-07-31T03:49:33;99771.09;;;15.24;100.00
25658;BME280;13517;59.320;18.042;2023-07-31T03:51:58;99754.22;;;15.20;100.00
25658;BME280;13517;59.320;18.042;2023-07-31T03:54:24;99763.69;;;15.34;100.00
25658;BME280;13517;59.320;18.042;2023-07-31T03:56:49;99734.63;;;15.17;100.00
25658;BME280;13517;59.320;18.042;2023-07-31T03:59:15;99762.41;;;15.38;100.00
25658;BME280;13517;59.320;18.042;2023-07-31T04:01:40;99743.25;;;15.30;100.00
25658;BME280;13517;59.320;18.042;2023-07-31T04:04:05;99734.09;;;15.31;100.00
25658;BME280;13517;59.320;18.042;2023-07-31T04:06:31;99776.84;;;15.57;100.00
25658;BME280;13517;59.320;18.042;2023-07-31T04:08:56;99744.03;;;15.41;100.00
25658;BME280;13517;59.320;18.042;2023-07-31T04:11:22;99776.84;;;15.57;100.00
25658;BME280;13517;59.320;18.042;2023-07-31T04:13:47;99782.28;;;15.57;100.00
25658;BME280;13517;59.320;18.042;2023-07-31T04:16:13;99725.53;;;15.26;100.00
25658;BME280;13517;59.320;18.042;2023-07-31T04:18:38;99748.59;;;15.40;100.00
25658;BME280;13517;59.320;18.042;2023-07-31T04:21:03;99741.59;;;15.37;100.00
25658;BME280;13517;59.320;18.042;2023-07-31T04:23:29;99745.75;;;15.42;100.00
25658;BME280;13517;59.320;18.042;2023-07-31T04:25:54;99622.56;;;14.67;100.00
25658;BME280;13517;59.320;18.042;2023-07-31T04:28:20;99744.19;;;15.39;100.00
25658;BME280;13517;59.320;18.042;2023-07-31T04:30:45;99750.78;;;15.55;100.00
25658;BME280;13517;59.320;18.042;2023-07-31T04:33:11;99765.03;;;15.66;100.00
25658;BME280;13517;59.320;18.042;2023-07-31T04:35:36;99679.75;;;15.21;100.00
25658;BME280;13517;59.320;18.042;2023-07-31T04:38:01;99673.16;;;15.24;100.00
25658;BME280;13517;59.320;18.042;2023-07-31T04:40:27;99670.25;;;15.25;100.00
25658;BME280;13517;59.320;18.042;2023-07-31T04:42:52;99776.38;;;15.98;100.00
25658;BME280;13517;59.320;18.042;2023-07-31T04:45:18;99771.63;;;16.00;100.00
25658;BME280;13517;59.320;18.042;2023-07-31T04:47:43;99676.31;;;15.56;100.00
25658;BME280;13517;59.320;18.042;2023-07-31T04:50:09;99665.03;;;15.50;100.00
25658;BME280;13517;59.320;18.042;2023-07-31T04:52:34;99753.78;;;16.06;100.00
25658;BME280;13517;59.320;18.042;2023-07-31T04:55:00;99756.91;;;16.11;100.00
25658;BME280;13517;59.320;18.042;2023-07-31T04:57:25;99735.19;;;16.01;100.00
25658;BME280;13517;59.320;18.042;2023-07-31T04:59:51;99735.19;;;16.01;100.00
25658;BME280;13517;59.320;18.042;2023-07-31T05:02:16;99733.00;;;16.05;100.00
25658;BME280;13517;59.320;18.042;2023-07-31T05:04:42;99715.59;;;15.98;100.00
25658;BME280;13517;59.320;18.042;2023-07-31T05:07:07;99754.94;;;16.30;100.00
25658;BME280;13517;59.320;18.042;2023-07-31T05:09:33;99728.47;;;16.14;100.00
25658;BME280;13517;59.320;18.042;2023-07-31T05:11:59;99768.31;;;16.41;100.00
25658;BME280;13517;59.320;18.042;2023-07-31T05:14:25;99742.69;;;16.26;100.00
25658;BME280;13517;59.320;18.042;2023-07-31T05:16:51;99766.94;;;16.37;100.00
25658;BME280;13517;59.320;18.042;2023-07-31T05:19:17;99715.66;;;16.06;100.00
25658;BME280;13517;59.320;18.042;2023-07-31T05:21:42;99723.50;;;16.09;100.00
25658;BME280;13517;59.320;18.042;2023-07-31T05:24:07;99732.00;;;16.06;100.00
25658;BME280;13517;59.320;18.042;2023-07-31T05:26:33;99777.19;;;16.43;100.00
25658;BME280;13517;59.320;18.042;2023-07-31T05:28:58;99775.16;;;16.45;100.00
25658;BME280;13517;59.320;18.042;2023-07-31T05:31:24;99753.34;;;16.45;100.00
25658;BME280;13517;59.320;18.042;2023-07-31T05:33:50;99719.06;;;16.34;100.00
25658;BME280;13517;59.320;18.042;2023-07-31T05:36:16;99717.50;;;16.32;100.00
25658;BME280;13517;59.320;18.042;2023-07-31T05:38:41;99753.06;;;16.57;100.00
25658;BME280;13517;59.320;18.042;2023-07-31T05:41:09;99673.94;;;16.05;100.00
25658;BME280;13517;59.320;18.042;2023-07-31T05:43:35;99737.31;;;16.42;100.00
25658;BME280;13517;59.320;18.042;2023-07-31T05:46:01;99732.69;;;16.34;100.00
25658;BME280;13517;59.320;18.042;2023-07-31T05:48:27;99722.91;;;16.24;100.00
25658;BME280;13517;59.320;18.042;2023-07-31T05:50:52;99722.91;;;16.24;100.00
25658;BME280;13517;59.320;18.042;2023-07-31T05:53:18;99734.34;;;16.27;100.00
25658;BME280;13517;59.320;18.042;2023-07-31T05:55:43;99760.28;;;16.40;100.00
25658;BME280;13517;59.320;18.042;2023-07-31T05:58:08;99758.22;;;16.33;100.00
25658;BME280;13517;59.320;18.042;2023-07-31T06:00:34;99725.16;;;16.02;100.00
25658;BME280;13517;59.320;18.042;2023-07-31T06:02:59;99777.41;;;16.24;100.00
25658;BME280;13517;59.320;18.042;2023-07-31T06:05:24;99762.97;;;16.05;100.00
25658;BME280;13517;59.320;18.042;2023-07-31T06:07:51;99725.34;;;15.82;100.00
25658;BME280;13517;59.320;18.042;2023-07-31T06:10:16;99688.38;;;15.53;100.00
25658;BME280;13517;59.320;18.042;2023-07-31T06:12:42;99678.56;;;15.42;100.00
25658;BME280;13517;59.320;18.042;2023-07-31T06:15:07;99810.75;;;16.17;100.00
25658;BME280;13517;59.320;18.042;2023-07-31T06:17:33;99782.72;;;16.07;100.00
25658;BME280;13517;59.320;18.042;2023-07-31T06:19:58;99799.41;;;16.04;100.00
25658;BME280;13517;59.320;18.042;2023-07-31T06:22:24;99727.53;;;15.60;100.00
25658;BME280;13517;59.320;18.042;2023-07-31T06:24:50;99811.78;;;16.16;100.00
25658;BME280;13517;59.320;18.042;2023-07-31T06:27:16;99814.22;;;16.28;100.00
25658;BME280;13517;59.320;18.042;2023-07-31T06:29:42;99815.91;;;16.29;100.00
25658;BME280;13517;59.320;18.042;2023-07-31T06:32:07;99814.38;;;16.26;100.00
25658;BME280;13517;59.320;18.042;2023-07-31T06:34:33;99765.66;;;15.97;100.00
25658;BME280;13517;59.320;18.042;2023-07-31T06:36:58;99783.59;;;16.08;100.00
25658;BME280;13517;59.320;18.042;2023-07-31T06:39:24;99754.66;;;15.88;100.00
25658;BME280;13517;59.320;18.042;2023-07-31T06:41:49;99813.47;;;16.17;100.00
25658;BME280;13517;59.320;18.042;2023-07-31T06:44:15;99797.69;;;16.03;100.00
25658;BME280;13517;59.320;18.042;2023-07-31T06:46:42;99818.59;;;16.20;100.00
25658;BME280;13517;59.320;18.042;2023-07-31T06:49:08;99774.84;;;15.96;100.00
25658;BME280;13517;59.320;18.042;2023-07-31T06:51:33;99811.38;;;16.11;100.00
25658;BME280;13517;59.320;18.042;2023-07-31T06:53:59;99805.53;;;16.06;100.00
25658;BME280;13517;59.320;18.042;2023-07-31T06:56:24;99751.63;;;15.73;100.00
25658;BME280;13517;59.320;18.042;2023-07-31T06:58:51;99810.25;;;15.96;100.00
25658;BME280;13517;59.320;18.042;2023-07-31T07:01:16;99790.53;;;15.65;100.00
25658;BME280;13517;59.320;18.042;2023-07-31T07:03:42;99834.47;;;15.71;100.00
25658;BME280;13517;59.320;18.042;2023-07-31T07:06:07;99728.81;;;14.83;100.00
25658;BME280;13517;59.320;18.042;2023-07-31T07:08:32;99757.81;;;14.93;100.00
25658;BME280;13517;59.320;18.042;2023-07-31T07:10:58;99839.03;;;15.34;100.00
25658;BME280;13517;59.320;18.042;2023-07-31T07:13:23;99783.09;;;15.03;100.00
25658;BME280;13517;59.320;18.042;2023-07-31T07:15:49;99817.22;;;15.16;100.00
25658;BME280;13517;59.320;18.042;2023-07-31T07:18:15;99827.31;;;15.05;100.00
25658;BME280;13517;59.320;18.042;2023-07-31T07:20:40;99829.09;;;14.87;100.00
25658;BME280;13517;59.320;18.042;2023-07-31T07:23:06;99821.53;;;14.70;100.00
25658;BME280;13517;59.320;18.042;2023-07-31T07:25:31;99796.63;;;14.47;100.00
25658;BME280;13517;59.320;18.042;2023-07-31T07:27:57;99804.34;;;14.42;100.00
25658;BME280;13517;59.320;18.042;2023-07-31T07:30:22;99811.78;;;14.40;100.00
25658;BME280;13517;59.320;18.042;2023-07-31T07:32:50;99823.38;;;14.42;100.00
25658;BME280;13517;59.320;18.042;2023-07-31T07:35:15;99766.69;;;14.09;100.00
25658;BME280;13517;59.320;18.042;2023-07-31T07:37:41;99778.22;;;14.21;100.00
25658;BME280;13517;59.320;18.042;2023-07-31T07:40:07;99813.78;;;14.38;100.00
25658;BME280;13517;59.320;18.042;2023-07-31T07:42:32;99784.81;;;14.09;100.00
25658;BME280;13517;59.320;18.042;2023-07-31T07:44:57;99764.88;;;13.90;100.00
25658;BME280;13517;59.320;18.042;2023-07-31T07:47:23;99810.00;;;14.11;100.00
25658;BME280;13517;59.320;18.042;2023-07-31T07:49:48;99802.69;;;14.11;100.00
25658;BME280;13517;59.320;18.042;2023-07-31T07:52:14;99801.69;;;14.02;100.00
25658;BME280;13517;59.320;18.042;2023-07-31T07:54:39;99724.63;;;13.56;100.00
25658;BME280;13517;59.320;18.042;2023-07-31T07:57:04;99843.28;;;14.23;100.00
25658;BME280;13517;59.320;18.042;2023-07-31T07:59:30;99841.84;;;14.28;100.00
25658;BME280;13517;59.320;18.042;2023-07-31T08:01:55;99806.16;;;14.03;100.00
25658;BME280;13517;59.320;18.042;2023-07-31T08:04:20;99820.13;;;14.09;100.00
25658;BME280;13517;59.320;18.042;2023-07-31T08:06:46;99751.88;;;13.64;100.00
25658;BME280;13517;59.320;18.042;2023-07-31T08:09:11;99795.31;;;13.94;100.00
25658;BME280;13517;59.320;18.042;2023-07-31T08:11:37;99820.56;;;14.14;100.00
25658;BME280;13517;59.320;18.042;2023-07-31T08:14:02;99811.84;;;14.10;100.00
25658;BME280;13517;59.320;18.042;2023-07-31T08:16:28;99813.28;;;14.14;100.00
25658;BME280;13517;59.320;18.042;2023-07-31T08:18:53;99825.00;;;14.15;100.00
25658;BME280;13517;59.320;18.042;2023-07-31T08:21:18;99792.41;;;14.05;100.00
25658;BME280;13517;59.320;18.042;2023-07-31T08:23:44;99818.66;;;14.24;100.00
25658;BME280;13517;59.320;18.042;2023-07-31T08:26:16;99775.28;;;13.95;100.00
25658;BME280;13517;59.320;18.042;2023-07-31T08:28:42;99766.44;;;13.93;100.00
25658;BME280;13517;59.320;18.042;2023-07-31T08:31:07;99768.28;;;13.92;100.00
25658;BME280;13517;59.320;18.042;2023-07-31T08:33:33;99739.59;;;13.80;100.00
25658;BME280;13517;59.320;18.042;2023-07-31T08:35:58;99750.00;;;13.84;100.00
25658;BME280;13517;59.320;18.042;2023-07-31T08:38:25;99771.88;;;13.93;100.00
25658;BME280;13517;59.320;18.042;2023-07-31T08:40:51;99715.59;;;13.55;100.00
25658;BME280;13517;59.320;18.042;2023-07-31T08:43:17;99745.59;;;13.73;100.00
25658;BME280;13517;59.320;18.042;2023-07-31T08:45:44;99743.59;;;13.75;100.00
25658;BME280;13517;59.320;18.042;2023-07-31T08:48:11;99718.88;;;13.59;100.00
25658;BME280;13517;59.320;18.042;2023-07-31T08:50:37;99762.84;;;14.02;100.00
25658;BME280;13517;59.320;18.042;2023-07-31T08:53:03;99728.72;;;13.89;100.00
25658;BME280;13517;59.320;18.042;2023-07-31T08:55:29;99732.84;;;14.03;100.00
25658;BME280;13517;59.320;18.042;2023-07-31T08:57:55;99719.81;;;14.07;100.00
25658;BME280;13517;59.320;18.042;2023-07-31T09:00:21;99678.53;;;14.03;100.00
25658;BME280;13517;59.320;18.042;2023-07-31T09:03:02;99755.75;;;14.67;100.00
25658;BME280;13517;59.320;18.042;2023-07-31T09:05:29;99735.63;;;14.60;100.00
25658;BME280;13517;59.320;18.042;2023-07-31T09:07:56;99761.69;;;14.90;100.00
25658;BME280;13517;59.320;18.042;2023-07-31T09:10:22;99765.31;;;15.09;100.00
25658;BME280;13517;59.320;18.042;2023-07-31T09:12:49;99763.91;;;15.23;100.00
25658;BME280;13517;59.320;18.042;2023-07-31T09:15:14;99758.47;;;15.23;100.00
25658;BME280;13517;59.320;18.042;2023-07-31T09:17:40;99756.75;;;15.22;100.00
25658;BME280;13517;59.320;18.042;2023-07-31T09:20:31;99760.66;;;15.37;100.00
25658;BME280;13517;59.320;18.042;2023-07-31T09:23:06;99758.09;;;15.54;100.00
25658;BME280;13517;59.320;18.042;2023-07-31T09:25:32;99736.34;;;15.54;100.00
25658;BME280;13517;59.320;18.042;2023-07-31T09:30:24;99724.72;;;15.88;100.00
25658;BME280;13517;59.320;18.042;2023-07-31T09:32:52;99771.41;;;16.46;100.00
25658;BME280;13517;59.320;18.042;2023-07-31T09:35:32;99787.22;;;16.69;100.00
25658;BME280;13517;59.320;18.042;2023-07-31T09:38:00;99780.94;;;16.77;100.00
25658;BME280;13517;59.320;18.042;2023-07-31T09:43:00;99779.78;;;16.80;100.00
25658;BME280;13517;59.320;18.042;2023-07-31T09:45:26;99739.94;;;16.60;100.00
25658;BME280;13517;59.320;18.042;2023-07-31T09:47:53;99790.72;;;16.88;100.00
25658;BME280;13517;59.320;18.042;2023-07-31T09:50:21;99785.72;;;17.10;100.00
25658;BME280;13517;59.320;18.042;2023-07-31T09:52:47;99764.91;;;17.17;100.00
25658;BME280;13517;59.320;18.042;2023-07-31T09:55:12;99737.09;;;17.05;100.00
25658;BME280;13517;59.320;18.042;2023-07-31T09:57:45;99776.53;;;17.36;100.00
25658;BME280;13517;59.320;18.042;2023-07-31T10:00:12;99781.31;;;17.34;100.00
25658;BME280;13517;59.320;18.042;2023-07-31T10:02:39;99771.78;;;17.29;100.00
25658;BME280;13517;59.320;18.042;2023-07-31T10:05:06;99761.00;;;17.20;100.00
25658;BME280;13517;59.320;18.042;2023-07-31T10:07:37;99720.47;;;16.90;100.00
25658;BME280;13517;59.320;18.042;2023-07-31T10:10:04;99743.06;;;17.09;100.00
25658;BME280;13517;59.320;18.042;2023-07-31T10:12:32;99743.53;;;17.04;100.00
25658;BME280;13517;59.320;18.042;2023-07-31T10:14:59;99706.28;;;16.78;100.00
25658;BME280;13517;59.320;18.042;2023-07-31T10:17:25;99707.34;;;16.85;100.00
25658;BME280;13517;59.320;18.042;2023-07-31T10:19:51;99732.06;;;16.92;100.00
25658;BME280;13517;59.320;18.042;2023-07-31T10:22:18;99734.13;;;16.90;100.00
25658;BME280;13517;59.320;18.042;2023-07-31T10:24:45;99683.50;;;16.44;100.00
25658;BME280;13517;59.320;18.042;2023-07-31T10:27:10;99741.91;;;16.77;100.00
25658;BME280;13517;59.320;18.042;2023-07-31T10:29:38;99741.44;;;16.89;100.00
25658;BME280;13517;59.320;18.042;2023-07-31T10:32:05;99754.16;;;17.15;100.00
25658;BME280;13517;59.320;18.042;2023-07-31T10:34:34;99745.16;;;17.23;100.00
25658;BME280;13517;59.320;18.042;2023-07-31T10:37:19;99759.84;;;17.31;100.00
25658;BME280;13517;59.320;18.042;2023-07-31T10:40:11;99777.59;;;17.43;100.00
25658;BME280;13517;59.320;18.042;2023-07-31T10:48:04;99774.19;;;17.49;100.00
25658;BME280;13517;59.320;18.042;2023-07-31T10:50:31;99767.69;;;17.50;100.00
25658;BME280;13517;59.320;18.042;2023-07-31T10:53:00;99763.44;;;17.48;100.00
25658;BME280;13517;59.320;18.042;2023-07-31T10:55:38;99768.03;;;17.47;100.00
25658;BME280;13517;59.320;18.042;2023-07-31T10:58:12;99775.72;;;17.52;100.00
25658;BME280;13517;59.320;18.042;2023-07-31T11:00:42;99772.47;;;17.48;100.00
25658;BME280;13517;59.320;18.042;2023-07-31T11:03:09;99721.78;;;17.12;100.00
25658;BME280;13517;59.320;18.042;2023-07-31T11:05:52;99779.47;;;17.34;100.00
25658;BME280;13517;59.320;18.042;2023-07-31T11:08:24;99786.63;;;17.35;100.00
25658;BME280;13517;59.320;18.042;2023-07-31T11:11:12;99771.94;;;17.20;100.00
25658;BME280;13517;59.320;18.042;2023-07-31T11:13:48;99801.69;;;17.48;100.00
25658;BME280;13517;59.320;18.042;2023-07-31T11:16:23;99774.84;;;17.43;100.00
25658;BME280;13517;59.320;18.042;2023-07-31T11:18:50;99762.44;;;17.49;100.00
25658;BME280;13517;59.320;18.042;2023-07-31T11:21:18;99809.06;;;17.80;100.00
25658;BME280;13517;59.320;18.042;2023-07-31T11:23:49;99767.69;;;17.50;100.00
25658;BME280;13517;59.320;18.042;2023-07-31T11:26:14;99812.81;;;17.79;100.00
25658;BME280;13517;59.320;18.042;2023-07-31T11:28:40;99824.22;;;17.75;100.00
25658;BME280;13517;59.320;18.042;2023-07-31T11:31:09;99830.91;;;17.72;100.00
25658;BME280;13517;59.320;18.042;2023-07-31T11:33:35;99711.00;;;17.02;100.00
25658;BME280;13517;59.320;18.042;2023-07-31T11:36:00;99718.53;;;17.09;100.00
25658;BME280;13517;59.320;18.042;2023-07-31T11:38:31;99802.50;;;17.48;100.00
25658;BME280;13517;59.320;18.042;2023-07-31T11:41:02;99807.59;;;17.35;100.00
25658;BME280;13517;59.320;18.042;2023-07-31T11:43:28;99817.84;;;17.41;100.00
25658;BME280;13517;59.320;18.042;2023-07-31T11:45:59;99766.91;;;17.07;100.00
25658;BME280;13517;59.320;18.042;2023-07-31T11:48:25;99816.50;;;17.37;100.00
25658;BME280;13517;59.320;18.042;2023-07-31T11:50:54;99816.81;;;17.34;100.00
25658;BME280;13517;59.320;18.042;2023-07-31T11:53:25;99789.13;;;17.12;100.00
25658;BME280;13517;59.320;18.042;2023-07-31T11:55:52;99807.22;;;17.21;100.00
25658;BME280;13517;59.320;18.042;2023-07-31T11:58:18;99762.72;;;16.86;100.00
25658;BME280;13517;59.320;18.042;2023-07-31T12:00:45;99813.81;;;17.02;100.00
25658;BME280;13517;59.320;18.042;2023-07-31T12:03:11;99792.00;;;16.75;100.00
25658;BME280;13517;59.320;18.042;2023-07-31T12:05:37;99777.91;;;16.45;100.00
25658;BME280;13517;59.320;18.042;2023-07-31T12:08:10;99817.13;;;16.53;100.00
25658;BME280;13517;59.320;18.042;2023-07-31T12:10:37;99791.56;;;16.27;100.00
25658;BME280;13517;59.320;18.042;2023-07-31T12:13:04;99823.06;;;16.30;100.00
25658;BME280;13517;59.320;18.042;2023-07-31T12:18:04;99757.09;;;15.55;100.00
25658;BME280;13517;59.320;18.042;2023-07-31T12:20:30;99813.94;;;15.76;100.00
25658;BME280;13517;59.320;18.042;2023-07-31T12:22:56;99814.59;;;15.70;100.00
25658;BME280;13517;59.320;18.042;2023-07-31T12:25:23;99806.09;;;15.55;100.00
25658;BME280;13517;59.320;18.042;2023-07-31T12:27:53;99811.06;;;15.60;100.00
25658;BME280;13517;59.320;18.042;2023-07-31T12:30:34;99812.06;;;15.59;100.00
25658;BME280;13517;59.320;18.042;2023-07-31T12:33:15;99800.88;;;15.62;100.00
25658;BME280;13517;59.320;18.042;2023-07-31T12:35:46;99811.88;;;15.70;100.00
25658;BME280;13517;59.320;18.042;2023-07-31T12:38:15;99804.53;;;15.71;100.00
25658;BME280;13517;59.320;18.042;2023-07-31T12:40:41;99801.81;;;15.71;100.00
25658;BME280;13517;59.320;18.042;2023-07-31T12:43:08;99743.97;;;15.32;100.00
25658;BME280;13517;59.320;18.042;2023-07-31T12:45:34;99794.44;;;15.63;100.00
25658;BME280;13517;59.320;18.042;2023-07-31T12:48:01;99811.38;;;15.75;100.00
25658;BME280;13517;59.320;18.042;2023-07-31T12:50:27;99798.78;;;15.74;100.00
25658;BME280;13517;59.320;18.042;2023-07-31T12:52:55;99754.31;;;15.47;100.00
25658;BME280;13517;59.320;18.042;2023-07-31T12:55:21;99751.81;;;15.35;100.00
25658;BME280;13517;59.320;18.042;2023-07-31T12:57:47;99774.72;;;15.51;100.00
25658;BME280;13517;59.320;18.042;2023-07-31T13:00:13;99793.72;;;15.79;100.00